createdAt,value
2023-01-29T00:00:52.414Z,94733.59
2023-01-29T00:02:54.114Z,94726.44
2023-01-29T00:04:58.903Z,94734.41
2023-01-29T00:07:00.879Z,94726.59
2023-01-29T00:09:02.473Z,94733.22
2023-01-29T00:11:07.812Z,94734.13
2023-01-29T00:13:09.419Z,94730.22
2023-01-29T00:15:11.003Z,94742.38
2023-01-29T00:17:12.590Z,94738.88
2023-01-29T00:19:14.287Z,94734.91
2023-01-29T00:21:18.152Z,94743.38
2023-01-29T00:23:19.787Z,94740.84
2023-01-29T00:25:21.511Z,94744.53
2023-01-29T00:27:23.074Z,94746.91
2023-01-29T00:29:24.704Z,94744.72
2023-01-29T00:31:26.431Z,94746.56
2023-01-29T00:33:29.293Z,94745.75
2023-01-29T00:35:31.406Z,94749.88
2023-01-29T00:37:33.052Z,94741.69
2023-01-29T00:39:47.508Z,94747.66
2023-01-29T00:42:08.141Z,94748.03
2023-01-29T00:44:27.946Z,94748.88
2023-01-29T00:46:29.583Z,94747.66
2023-01-29T00:48:31.172Z,94745.44
2023-01-29T00:50:32.902Z,94751.34
2023-01-29T00:52:36.452Z,94745.06
2023-01-29T00:54:38.078Z,94752.06
2023-01-29T00:56:39.928Z,94744.34
2023-01-29T00:58:41.544Z,94746.63
2023-01-29T01:00:43.189Z,94746.25
2023-01-29T01:03:03.689Z,94742.50
2023-01-29T01:05:07.779Z,94748.41
2023-01-29T01:07:09.482Z,94746.38
2023-01-29T01:09:30.094Z,94746.00
2023-01-29T01:11:33.883Z,94749.56
2023-01-29T01:13:35.409Z,94745.63
2023-01-29T01:15:39.109Z,94741.28
2023-01-29T01:17:40.793Z,94749.56
2023-01-29T01:19:42.375Z,94750.50
2023-01-29T01:21:45.586Z,94738.34
2023-01-29T01:23:47.809Z,94742.41
2023-01-29T01:25:49.407Z,94742.06
2023-01-29T01:30:00.406Z,94745.72
2023-01-29T01:32:02.292Z,94742.41
2023-01-29T01:34:04.100Z,94741.91
2023-01-29T01:36:09.808Z,94735.44
2023-01-29T01:38:11.575Z,94737.81
2023-01-29T01:40:18.293Z,94746.16
2023-01-29T01:42:20.398Z,94740.16
2023-01-29T01:45:01.319Z,94736.25
2023-01-29T01:47:02.962Z,94744.00
2023-01-29T01:49:13.734Z,94744.47
2023-01-29T01:51:16.807Z,94749.31
2023-01-29T01:53:45.628Z,94752.63
2023-01-29T01:55:53.786Z,94757.78
2023-01-29T01:58:02.111Z,94757.22
2023-01-29T02:00:13.078Z,94746.75
2023-01-29T02:02:33.716Z,94755.69
2023-01-29T02:04:53.845Z,94758.19
2023-01-29T02:07:14.698Z,94769.00
2023-01-29T02:09:35.701Z,94761.06
2023-01-29T02:11:37.790Z,94758.84
2023-01-29T02:13:40.327Z,94755.81
2023-01-29T02:15:46.894Z,94755.22
2023-01-29T02:17:48.612Z,94756.88
2023-01-29T02:19:53.166Z,94761.41
2023-01-29T02:21:57.567Z,94761.50
2023-01-29T02:24:33.111Z,94763.59
2023-01-29T02:26:46.579Z,94759.81
2023-01-29T02:29:22.506Z,94761.19
2023-01-29T02:31:35.407Z,94769.81
2023-01-29T02:33:45.107Z,94771.03
2023-01-29T02:35:56.411Z,94769.38
2023-01-29T02:38:36.850Z,94777.75
2023-01-29T02:41:04.499Z,94778.03
2023-01-29T02:43:07.719Z,94777.47
2023-01-29T02:45:23.098Z,94781.72
2023-01-29T02:47:35.937Z,94786.59
2023-01-29T02:49:49.083Z,94783.72
2023-01-29T02:52:09.569Z,94778.41
2023-01-29T02:54:21.878Z,94780.25
2023-01-29T02:56:35.273Z,94780.03
2023-01-29T02:58:41.689Z,94779.66
2023-01-29T03:00:46.032Z,94778.19
2023-01-29T03:03:01.204Z,94775.25
2023-01-29T03:05:06.017Z,94777.66
2023-01-29T03:07:10.755Z,94782.19
2023-01-29T03:09:34.560Z,94778.94
2023-01-29T03:11:41.495Z,94779.06
2023-01-29T03:13:47.879Z,94784.75
2023-01-29T03:15:56.958Z,94771.94
2023-01-29T03:18:02.863Z,94781.97
2023-01-29T03:20:08.321Z,94781.53
2023-01-29T03:22:11.322Z,94790.00
2023-01-29T03:24:32.696Z,94781.34
2023-01-29T03:26:52.816Z,94791.75
2023-01-29T03:29:12.942Z,94787.97
2023-01-29T03:31:33.920Z,94783.94
2023-01-29T03:33:59.876Z,94786.16
2023-01-29T03:36:13.423Z,94785.34
2023-01-29T03:38:16.031Z,94793.16
2023-01-29T03:40:18.223Z,94792.94
2023-01-29T03:42:31.319Z,94788.53
2023-01-29T03:44:40.447Z,94787.34
2023-01-29T03:46:53.179Z,94783.94
2023-01-29T03:48:59.392Z,94786.75
2023-01-29T03:51:02.638Z,94784.59
2023-01-29T03:53:27.414Z,94784.50
2023-01-29T03:55:37.754Z,94787.53
2023-01-29T03:57:54.613Z,94785.69
2023-01-29T04:00:17.641Z,94784.03
2023-01-29T04:02:35.347Z,94783.09
2023-01-29T04:04:38.459Z,94783.84
2023-01-29T04:06:42.177Z,94784.13
2023-01-29T04:08:52.657Z,94789.19
2023-01-29T04:10:57.551Z,94790.63
2023-01-29T04:13:02.354Z,94795.25
2023-01-29T04:15:06.265Z,94795.88
2023-01-29T04:17:18.183Z,94794.03
2023-01-29T04:19:20.307Z,94793.88
2023-01-29T04:21:22.123Z,94802.31
2023-01-29T04:23:26.030Z,94807.28
2023-01-29T04:25:29.126Z,94802.22
2023-01-29T04:28:00.112Z,94799.75
2023-01-29T04:30:23.330Z,94803.44
2023-01-29T04:32:31.290Z,94804.19
2023-01-29T04:34:53.676Z,94802.31
2023-01-29T04:37:16.990Z,94803.31
2023-01-29T04:39:23.321Z,94804.69
2023-01-29T04:41:30.633Z,94810.59
2023-01-29T04:43:38.084Z,94802.78
2023-01-29T04:45:45.520Z,94805.44
2023-01-29T04:48:20.099Z,94806.84
2023-01-29T04:50:35.870Z,94806.84
2023-01-29T04:52:49.706Z,94812.16
2023-01-29T04:54:51.342Z,94812.00
2023-01-29T04:57:05.965Z,94809.94
2023-01-29T04:59:11.907Z,94808.91
2023-01-29T05:01:14.651Z,94813.25
2023-01-29T05:03:16.647Z,94814.00
2023-01-29T05:05:19.818Z,94807.47
2023-01-29T05:07:22.538Z,94809.94
2023-01-29T05:09:25.278Z,94816.56
2023-01-29T05:11:26.902Z,94811.50
2023-01-29T05:13:30.860Z,94815.53
2023-01-29T05:15:35.924Z,94809.28
2023-01-29T05:17:37.587Z,94821.72
2023-01-29T05:19:39.236Z,94818.69
2023-01-29T05:21:43.814Z,94821.00
2023-01-29T05:23:53.264Z,94822.38
2023-01-29T05:25:56.764Z,94823.47
2023-01-29T05:28:04.849Z,94822.47
2023-01-29T05:30:07.123Z,94825.13
2023-01-29T05:32:11.357Z,94823.41
2023-01-29T05:34:13.031Z,94826.59
2023-01-29T05:36:14.675Z,94828.56
2023-01-29T05:38:17.694Z,94828.44
2023-01-29T05:40:19.516Z,94831.56
2023-01-29T05:42:21.276Z,94829.81
2023-01-29T05:44:22.878Z,94827.53
2023-01-29T05:46:24.657Z,94828.34
2023-01-29T05:48:28.848Z,94831.00
2023-01-29T05:50:30.450Z,94837.56
2023-01-29T05:52:32.189Z,94843.53
2023-01-29T05:54:33.814Z,94841.78
2023-01-29T05:56:35.363Z,94841.97
2023-01-29T05:58:37.024Z,94849.25
2023-01-29T06:00:39.094Z,94852.31
2023-01-29T06:02:40.951Z,94847.63
2023-01-29T06:04:42.599Z,94857.75
2023-01-29T06:06:46.958Z,94854.34
2023-01-29T06:08:48.628Z,94856.72
2023-01-29T06:10:50.191Z,94865.09
2023-01-29T06:12:51.770Z,94864.19
2023-01-29T06:14:53.361Z,94866.03
2023-01-29T06:16:54.932Z,94867.31
2023-01-29T06:18:56.872Z,94869.91
2023-01-29T06:21:02.775Z,94878.56
2023-01-29T06:23:04.409Z,94869.91
2023-01-29T06:25:06.770Z,94874.31
2023-01-29T06:27:08.363Z,94878.84
2023-01-29T06:29:10.208Z,94880.41
2023-01-29T06:31:27.403Z,94882.03
2023-01-29T06:33:33.309Z,94889.13
2023-01-29T06:35:34.966Z,94897.16
2023-01-29T06:37:36.717Z,94892.06
2023-01-29T06:39:38.400Z,94893.25
2023-01-29T06:41:39.982Z,94896.19
2023-01-29T06:43:44.480Z,94896.13
2023-01-29T06:45:50.433Z,94899.97
2023-01-29T06:47:52.162Z,94895.09
2023-01-29T06:49:53.755Z,94906.13
2023-01-29T06:51:55.411Z,94897.50
2023-01-29T06:53:57.138Z,94908.16
2023-01-29T06:55:58.772Z,94895.38
2023-01-29T06:58:00.603Z,94903.09
2023-01-29T07:00:02.260Z,94902.25
2023-01-29T07:02:04.181Z,94906.13
2023-01-29T07:04:05.871Z,94908.88
2023-01-29T07:06:08.256Z,94913.72
2023-01-29T07:08:09.851Z,94917.34
2023-01-29T07:10:11.714Z,94907.97
2023-01-29T07:12:13.333Z,94914.97
2023-01-29T07:14:14.948Z,94918.81
2023-01-29T07:16:16.669Z,94922.72
2023-01-29T07:18:18.276Z,94923.25
2023-01-29T07:20:19.934Z,94929.25
2023-01-29T07:22:21.579Z,94932.00
2023-01-29T07:24:23.294Z,94923.16
2023-01-29T07:26:24.966Z,94930.06
2023-01-29T07:28:26.619Z,94925.44
2023-01-29T07:30:28.459Z,94935.38
2023-01-29T07:32:30.131Z,94932.16
2023-01-29T07:34:31.763Z,94929.59
2023-01-29T07:36:33.397Z,94934.44
2023-01-29T07:38:35.024Z,94933.78
2023-01-29T07:40:36.899Z,94933.91
2023-01-29T07:42:39.973Z,94941.38
2023-01-29T07:44:41.637Z,94940.75
2023-01-29T07:46:43.544Z,94938.91
2023-01-29T07:48:45.132Z,94937.03
2023-01-29T07:50:54.944Z,94940.91
2023-01-29T07:52:56.937Z,94943.72
2023-01-29T07:54:58.574Z,94940.84
2023-01-29T07:57:00.179Z,94950.34
2023-01-29T07:59:01.824Z,94942.31
2023-01-29T08:01:07.772Z,94944.16
2023-01-29T08:03:18.150Z,94949.25
2023-01-29T08:05:20.175Z,94953.66
2023-01-29T08:07:21.808Z,94957.06
2023-01-29T08:09:23.404Z,94956.53
2023-01-29T08:11:25.049Z,94951.75
2023-01-29T08:13:26.642Z,94958.88
2023-01-29T08:15:28.751Z,94952.19
2023-01-29T08:17:30.320Z,94961.13
2023-01-29T08:19:32.208Z,94957.66
2023-01-29T08:21:33.782Z,94957.28
2023-01-29T08:23:35.480Z,94956.09
2023-01-29T08:25:37.160Z,94958.91
2023-01-29T08:27:38.862Z,94959.28
2023-01-29T08:29:40.486Z,94965.91
2023-01-29T08:31:42.120Z,94969.88
2023-01-29T08:33:43.795Z,94970.56
2023-01-29T08:35:50.470Z,94971.97
2023-01-29T08:37:59.552Z,94965.78
2023-01-29T08:40:01.402Z,94968.56
2023-01-29T08:42:03.003Z,94972.22
2023-01-29T08:44:04.788Z,94972.28
2023-01-29T08:46:07.421Z,94980.47
2023-01-29T08:48:09.793Z,94980.84
2023-01-29T08:50:11.734Z,94980.72
2023-01-29T08:52:13.358Z,94985.44
2023-01-29T08:54:14.957Z,94986.09
2023-01-29T08:56:16.557Z,94986.44
2023-01-29T08:58:18.249Z,95004.06
2023-01-29T09:00:20.247Z,94995.66
2023-01-29T09:02:21.900Z,94999.88
2023-01-29T09:04:23.629Z,94988.53
2023-01-29T09:06:25.204Z,94994.13
2023-01-29T09:08:26.920Z,94999.59
2023-01-29T09:10:28.527Z,95006.31
2023-01-29T09:12:30.148Z,94995.78
2023-01-29T09:14:32.887Z,94997.09
2023-01-29T09:16:34.585Z,94991.75
2023-01-29T09:18:36.454Z,94983.66
2023-01-29T09:20:38.347Z,94992.13
2023-01-29T09:22:40.015Z,94997.00
2023-01-29T09:24:41.649Z,94986.50
2023-01-29T09:26:43.291Z,94988.31
2023-01-29T09:28:44.978Z,94985.09
2023-01-29T09:30:47.031Z,94989.72
2023-01-29T09:32:56.022Z,94988.91
2023-01-29T09:34:57.859Z,94987.53
2023-01-29T09:36:59.388Z,94984.41
2023-01-29T09:39:00.977Z,94985.47
2023-01-29T09:41:23.766Z,94990.09
2023-01-29T09:43:32.305Z,94979.31
2023-01-29T09:45:34.340Z,94982.25
2023-01-29T09:47:36.784Z,94975.25
2023-01-29T09:49:43.788Z,94977.34
2023-01-29T09:51:50.353Z,94975.19
2023-01-29T09:53:58.983Z,94978.72
2023-01-29T09:56:13.271Z,94975.56
2023-01-29T09:58:17.502Z,94975.19
2023-01-29T10:00:22.100Z,94982.19
2023-01-29T10:02:38.754Z,94981.81
2023-01-29T10:04:49.456Z,94972.44
2023-01-29T10:07:19.814Z,94977.59
2023-01-29T10:09:57.530Z,94965.69
2023-01-29T10:12:20.897Z,94962.84
2023-01-29T10:14:24.773Z,94966.72
2023-01-29T10:16:48.116Z,94958.16
2023-01-29T10:19:06.130Z,94960.75
2023-01-29T10:21:44.840Z,94959.38
2023-01-29T10:23:52.140Z,94963.06
2023-01-29T10:25:54.347Z,94961.97
2023-01-29T10:27:58.511Z,94966.84
2023-01-29T10:30:02.333Z,94948.13
2023-01-29T10:32:06.111Z,94951.00
2023-01-29T10:34:21.509Z,94946.66
2023-01-29T10:36:28.092Z,94948.50
2023-01-29T10:38:41.792Z,94944.00
2023-01-29T10:40:56.767Z,94935.97
2023-01-29T10:43:22.825Z,94947.22
2023-01-29T10:45:32.513Z,94944.66
2023-01-29T10:47:37.068Z,94949.53
2023-01-29T10:50:00.002Z,94947.59
2023-01-29T10:52:23.055Z,94941.50
2023-01-29T10:54:34.545Z,94935.97
2023-01-29T10:56:45.006Z,94940.03
2023-01-29T10:58:52.487Z,94946.94
2023-01-29T11:00:54.099Z,94942.72
2023-01-29T11:02:55.857Z,94941.63
2023-01-29T11:04:57.566Z,94937.38
2023-01-29T11:06:59.693Z,94937.44
2023-01-29T11:09:19.570Z,94929.56
2023-01-29T11:11:22.861Z,94935.63
2023-01-29T11:13:29.089Z,94924.94
2023-01-29T11:15:33.879Z,94929.91
2023-01-29T11:17:35.447Z,94924.56
2023-01-29T11:19:37.045Z,94925.81
2023-01-29T11:22:13.939Z,94920.19
2023-01-29T11:24:17.345Z,94917.03
2023-01-29T11:26:22.331Z,94912.91
2023-01-29T11:28:40.334Z,94912.53
2023-01-29T11:30:42.107Z,94912.03
2023-01-29T11:32:43.805Z,94913.16
2023-01-29T11:34:58.609Z,94910.09
2023-01-29T11:37:16.768Z,94905.31
2023-01-29T11:39:23.107Z,94899.34
2023-01-29T11:41:25.549Z,94894.69
2023-01-29T11:43:27.087Z,94890.38
2023-01-29T11:45:32.368Z,94887.16
2023-01-29T11:47:33.988Z,94887.81
2023-01-29T11:49:35.961Z,94880.34
2023-01-29T11:51:38.654Z,94889.44
2023-01-29T11:53:45.550Z,94880.69
2023-01-29T11:55:50.871Z,94886.88
2023-01-29T11:58:07.925Z,94886.34
2023-01-29T12:00:28.803Z,94882.31
2023-01-29T12:02:37.516Z,94889.09
2023-01-29T12:04:39.647Z,94882.66
2023-01-29T12:06:44.290Z,94879.81
2023-01-29T12:08:54.779Z,94882.44
2023-01-29T12:11:09.239Z,94878.47
2023-01-29T12:13:10.978Z,94872.59
2023-01-29T12:15:18.524Z,94871.25
2023-01-29T12:17:24.038Z,94868.91
2023-01-29T12:19:36.274Z,94875.97
2023-01-29T12:21:50.648Z,94876.50
2023-01-29T12:24:02.390Z,94879.91
2023-01-29T12:26:16.186Z,94886.34
2023-01-29T12:28:34.766Z,94877.13
2023-01-29T12:31:09.459Z,94881.50
2023-01-29T12:33:39.929Z,94874.56
2023-01-29T12:35:48.619Z,94884.19
2023-01-29T12:38:19.055Z,94882.69
2023-01-29T12:40:21.969Z,94880.63
2023-01-29T12:42:24.637Z,94880.84
2023-01-29T12:44:32.149Z,94876.38
2023-01-29T12:46:39.177Z,94871.81
2023-01-29T12:48:43.057Z,94874.09
2023-01-29T12:50:46.271Z,94880.53
2023-01-29T12:52:56.186Z,94874.66
2023-01-29T12:55:07.353Z,94886.91
2023-01-29T12:57:15.685Z,94879.38
2023-01-29T12:59:32.158Z,94881.19
2023-01-29T13:01:37.333Z,94877.66
2023-01-29T13:04:00.230Z,94877.97
2023-01-29T13:06:16.045Z,94875.72
2023-01-29T13:08:27.236Z,94876.16
2023-01-29T13:10:34.281Z,94874.94
2023-01-29T13:12:36.328Z,94875.31
2023-01-29T13:15:06.493Z,94868.91
2023-01-29T13:17:14.848Z,94868.84
2023-01-29T13:19:28.221Z,94872.94
2023-01-29T13:21:35.378Z,94871.19
2023-01-29T13:23:47.144Z,94878.25
2023-01-29T13:25:52.346Z,94876.63
2023-01-29T13:27:53.991Z,94872.72
2023-01-29T13:29:56.614Z,94876.66
2023-01-29T13:32:00.451Z,94892.63
2023-01-29T13:34:02.016Z,94895.84
2023-01-29T13:36:04.139Z,94893.03
2023-01-29T13:38:06.439Z,94896.59
2023-01-29T13:40:18.654Z,94889.34
2023-01-29T13:42:23.976Z,94893.66
2023-01-29T13:44:37.041Z,94901.38
2023-01-29T13:46:40.730Z,94907.75
2023-01-29T13:48:43.963Z,94898.94
2023-01-29T13:50:45.859Z,94907.25
2023-01-29T13:52:58.393Z,94907.28
2023-01-29T13:55:02.081Z,94916.97
2023-01-29T13:57:03.794Z,94911.94
2023-01-29T13:59:06.341Z,94912.63
2023-01-29T14:01:08.005Z,94914.13
2023-01-29T14:03:11.762Z,94905.41
2023-01-29T14:05:31.894Z,94908.53
2023-01-29T14:07:45.774Z,94913.53
2023-01-29T14:09:47.325Z,94912.63
2023-01-29T14:11:49.000Z,94913.34
2023-01-29T14:13:52.396Z,94914.06
2023-01-29T14:15:57.136Z,94918.69
2023-01-29T14:18:18.908Z,94931.09
2023-01-29T14:20:25.775Z,94920.31
2023-01-29T14:22:30.330Z,94919.19
2023-01-29T14:24:31.981Z,94934.97
2023-01-29T14:26:45.812Z,94935.47
2023-01-29T14:29:06.740Z,94936.06
2023-01-29T14:31:08.742Z,94933.38
2023-01-29T14:33:36.607Z,94943.75
2023-01-29T14:35:38.226Z,94945.91
2023-01-29T14:37:41.138Z,94942.28
2023-01-29T14:39:47.376Z,94946.16
2023-01-29T14:41:50.916Z,94940.03
2023-01-29T14:44:30.778Z,94937.66
2023-01-29T14:46:35.405Z,94948.50
2023-01-29T14:48:39.248Z,94935.81
2023-01-29T14:50:44.079Z,94936.84
2023-01-29T14:52:47.113Z,94936.72
2023-01-29T14:54:48.925Z,94930.97
2023-01-29T14:56:58.475Z,94927.00
2023-01-29T14:59:13.180Z,94933.25
2023-01-29T15:01:24.248Z,94937.59
2023-01-29T15:03:44.980Z,94942.78
2023-01-29T15:05:48.254Z,94935.31
2023-01-29T15:07:58.819Z,94938.34
2023-01-29T15:10:27.491Z,94934.88
2023-01-29T15:12:53.032Z,94934.66
2023-01-29T15:15:04.899Z,94941.94
2023-01-29T15:17:09.579Z,94940.34
2023-01-29T15:19:37.202Z,94938.50
2023-01-29T15:21:38.958Z,94936.78
2023-01-29T15:23:41.073Z,94935.94
2023-01-29T15:25:50.093Z,94931.03
2023-01-29T15:27:52.378Z,94942.66
2023-01-29T15:30:03.199Z,94947.09
2023-01-29T15:32:05.213Z,94947.47
2023-01-29T15:34:07.812Z,94949.69
2023-01-29T15:36:18.878Z,94949.41
2023-01-29T15:38:26.540Z,94951.97
2023-01-29T15:40:28.659Z,94951.44
2023-01-29T15:42:43.874Z,94949.97
2023-01-29T15:44:46.675Z,94951.81
2023-01-29T15:46:54.001Z,94950.88
2023-01-29T15:48:57.937Z,94949.59
2023-01-29T15:50:59.446Z,94952.19
2023-01-29T15:53:04.463Z,94946.81
2023-01-29T15:55:07.319Z,94956.78
2023-01-29T15:57:17.465Z,94952.09
2023-01-29T15:59:25.364Z,94968.94
2023-01-29T16:01:28.103Z,94962.75
2023-01-29T16:03:32.463Z,94977.91
2023-01-29T16:05:34.223Z,94976.91
2023-01-29T16:07:36.155Z,94974.03
2023-01-29T16:09:38.116Z,94975.25
2023-01-29T16:11:40.451Z,94970.97
2023-01-29T16:13:44.221Z,94973.47
2023-01-29T16:16:00.429Z,94975.16
2023-01-29T16:18:05.302Z,94972.69
2023-01-29T16:20:20.435Z,94985.72
2023-01-29T16:22:22.026Z,94971.41
2023-01-29T16:24:25.061Z,94979.59
2023-01-29T16:26:29.411Z,94972.06
2023-01-29T16:28:31.624Z,94974.66
2023-01-29T16:30:33.464Z,94979.59
2023-01-29T16:32:35.496Z,94985.31
2023-01-29T16:34:50.063Z,94987.00
2023-01-29T16:36:53.501Z,94980.84
2023-01-29T16:39:01.132Z,94986.78
2023-01-29T16:41:16.584Z,94984.25
2023-01-29T16:43:18.181Z,94987.06
2023-01-29T16:45:28.887Z,94980.91
2023-01-29T16:47:34.516Z,94987.09
2023-01-29T16:49:39.166Z,94980.38
2023-01-29T16:51:40.864Z,94980.56
2023-01-29T16:53:55.435Z,94982.59
2023-01-29T16:56:02.274Z,94988.19
2023-01-29T16:58:12.863Z,94982.75
2023-01-29T17:00:26.976Z,94985.06
2023-01-29T17:02:33.287Z,94985.91
2023-01-29T17:04:34.867Z,94980.53
2023-01-29T17:06:37.009Z,94973.84
2023-01-29T17:08:39.087Z,94972.00
2023-01-29T17:10:47.242Z,94973.47
2023-01-29T17:12:54.802Z,94972.63
2023-01-29T17:15:31.622Z,94973.00
2023-01-29T17:17:36.163Z,94971.78
2023-01-29T17:19:37.753Z,94969.13
2023-01-29T17:21:39.615Z,94964.72
2023-01-29T17:23:41.253Z,94971.13
2023-01-29T17:25:42.903Z,94971.13
2023-01-29T17:27:51.460Z,94973.22
2023-01-29T17:29:53.689Z,94974.06
2023-01-29T17:31:56.131Z,94967.81
2023-01-29T17:33:57.811Z,94967.81
2023-01-29T17:35:59.745Z,94967.97
2023-01-29T17:38:01.367Z,94968.19
2023-01-29T17:40:05.244Z,94974.28
2023-01-29T17:42:12.048Z,94969.69
2023-01-29T17:44:13.817Z,94973.28
2023-01-29T17:46:17.110Z,94972.81
2023-01-29T17:48:25.664Z,94983.66
2023-01-29T17:50:29.526Z,94980.66
2023-01-29T17:52:32.257Z,94986.44
2023-01-29T17:54:33.853Z,94980.53
2023-01-29T17:56:35.533Z,94976.03
2023-01-29T17:58:37.229Z,94991.50
2023-01-29T18:00:38.844Z,94990.94
2023-01-29T18:02:40.432Z,94987.28
2023-01-29T18:04:42.045Z,94985.41
2023-01-29T18:06:45.513Z,94978.91
2023-01-29T18:08:47.148Z,94977.53
2023-01-29T18:10:48.780Z,94973.47
2023-01-29T18:12:50.694Z,94970.16
2023-01-29T18:14:52.658Z,94972.09
2023-01-29T18:16:57.152Z,94957.72
2023-01-29T18:18:58.951Z,94968.41
2023-01-29T18:21:00.551Z,94963.22
2023-01-29T18:23:04.499Z,94959.72
2023-01-29T18:25:06.216Z,94971.88
2023-01-29T18:27:08.618Z,94970.06
2023-01-29T18:29:10.217Z,94964.16
2023-01-29T18:31:13.957Z,94966.34
2023-01-29T18:33:16.511Z,94964.47
2023-01-29T18:35:18.531Z,94976.16
2023-01-29T18:37:20.629Z,94969.13
2023-01-29T18:39:22.300Z,94972.28
2023-01-29T18:41:24.048Z,94971.09
2023-01-29T18:43:26.347Z,94976.72
2023-01-29T18:45:29.109Z,94976.72
2023-01-29T18:47:30.816Z,94972.28
2023-01-29T18:49:32.567Z,94969.53
2023-01-29T18:51:34.708Z,94973.59
2023-01-29T18:53:36.371Z,94975.56
2023-01-29T18:55:38.087Z,94972.38
2023-01-29T18:58:28.983Z,94968.44
2023-01-29T19:00:02.885Z,94971.38
2023-01-29T19:02:04.606Z,94966.28
2023-01-29T19:04:06.387Z,94970.56
2023-01-29T19:06:09.878Z,94968.06
2023-01-29T19:08:11.534Z,94957.03
2023-01-29T19:10:13.227Z,94964.16
2023-01-29T19:12:14.785Z,94957.22
2023-01-29T19:14:16.372Z,94953.13
2023-01-29T19:16:18.049Z,94960.13
2023-01-29T19:18:20.524Z,94958.41
2023-01-29T19:20:22.180Z,94961.53
2023-01-29T19:22:24.040Z,94959.44
2023-01-29T19:24:25.693Z,94966.84
2023-01-29T19:26:27.381Z,94966.69
2023-01-29T19:28:29.097Z,94967.25
2023-01-29T19:30:30.802Z,94958.41
2023-01-29T19:32:32.510Z,94952.25
2023-01-29T19:34:34.351Z,94966.13
2023-01-29T19:36:36.647Z,94960.97
2023-01-29T19:38:38.942Z,94963.97
2023-01-29T19:40:40.932Z,94965.97
2023-01-29T19:42:42.580Z,94966.59
2023-01-29T19:44:45.700Z,94971.41
2023-01-29T19:46:47.459Z,94967.13
2023-01-29T19:48:49.099Z,94973.00
2023-01-29T19:50:53.975Z,94964.88
2023-01-29T19:52:56.432Z,94973.19
2023-01-29T19:54:58.211Z,94963.28
2023-01-29T19:56:59.834Z,94968.84
2023-01-29T19:59:01.483Z,94966.75
2023-01-29T20:01:13.017Z,94968.34
2023-01-29T20:03:14.851Z,94972.91
2023-01-29T20:05:18.388Z,94969.84
2023-01-29T20:07:20.134Z,94963.44
2023-01-29T20:09:21.734Z,94959.97
2023-01-29T20:11:23.992Z,94962.22
2023-01-29T20:13:25.618Z,94958.78
2023-01-29T20:15:27.227Z,94958.91
2023-01-29T20:17:29.028Z,94954.19
2023-01-29T20:19:30.613Z,94958.34
2023-01-29T20:21:32.350Z,94953.47
2023-01-29T20:23:38.094Z,94952.81
2023-01-29T20:25:40.594Z,94954.63
2023-01-29T20:27:42.197Z,94962.00
2023-01-29T20:29:45.393Z,94958.16
2023-01-29T20:31:47.118Z,94965.59
2023-01-29T20:33:48.832Z,94964.31
2023-01-29T20:35:57.302Z,94966.91
2023-01-29T20:37:59.205Z,94966.81
2023-01-29T20:40:00.822Z,94969.81
2023-01-29T20:42:02.472Z,94972.16
2023-01-29T20:44:04.131Z,94963.16
2023-01-29T20:46:05.954Z,94961.13
2023-01-29T20:48:08.094Z,94963.72
2023-01-29T20:50:13.147Z,94959.16
2023-01-29T20:52:14.820Z,94955.88
2023-01-29T20:54:16.543Z,94962.13
2023-01-29T20:56:18.591Z,94961.75
2023-01-29T20:58:33.961Z,94963.03
2023-01-29T21:00:35.637Z,94966.19
2023-01-29T21:02:37.288Z,94960.13
2023-01-29T21:04:38.828Z,94966.00
2023-01-29T21:06:40.443Z,94967.94
2023-01-29T21:08:42.208Z,94971.56
2023-01-29T21:10:45.258Z,94978.19
2023-01-29T21:12:46.952Z,94972.78
2023-01-29T21:14:48.538Z,94977.72
2023-01-29T21:16:50.200Z,94971.88
2023-01-29T21:18:55.243Z,94974.09
2023-01-29T21:20:56.873Z,94977.78
2023-01-29T21:22:58.547Z,94980.53
2023-01-29T21:25:00.248Z,94976.75
2023-01-29T21:27:01.831Z,94977.88
2023-01-29T21:29:03.754Z,94982.56
2023-01-29T21:31:11.079Z,94984.22
2023-01-29T21:33:12.681Z,94980.47
2023-01-29T21:35:15.140Z,94978.25
2023-01-29T21:37:16.805Z,94981.66
2023-01-29T21:39:20.649Z,94972.47
2023-01-29T21:41:42.100Z,94975.28
2023-01-29T21:43:45.042Z,94965.19
2023-01-29T21:45:46.631Z,94967.00
2023-01-29T21:47:48.315Z,94969.22
2023-01-29T21:49:49.966Z,94967.13
2023-01-29T21:51:51.742Z,94967.78
2023-01-29T21:53:53.351Z,94968.13
2023-01-29T21:56:02.161Z,94969.97
2023-01-29T21:58:04.417Z,94964.91
2023-01-29T22:00:06.688Z,94956.34
2023-01-29T22:02:14.020Z,94959.09
2023-01-29T22:04:15.778Z,94958.81
2023-01-29T22:06:17.420Z,94947.31
2023-01-29T22:08:20.558Z,94944.09
2023-01-29T22:10:22.544Z,94942.25
2023-01-29T22:12:24.321Z,94943.19
2023-01-29T22:14:26.140Z,94944.22
2023-01-29T22:16:29.895Z,94939.03
2023-01-29T22:18:31.665Z,94944.66
2023-01-29T22:20:33.296Z,94942.72
2023-01-29T22:22:34.977Z,94940.16
2023-01-29T22:24:36.573Z,94942.97
2023-01-29T22:26:38.237Z,94939.13
2023-01-29T22:28:39.874Z,94938.19
2023-01-29T22:30:41.688Z,94933.97
2023-01-29T22:32:43.379Z,94936.75
2023-01-29T22:34:44.951Z,94936.16
2023-01-29T22:36:46.566Z,94930.97
2023-01-29T22:38:48.153Z,94932.06
2023-01-29T22:40:51.223Z,94925.38
2023-01-29T22:42:52.858Z,94929.25
2023-01-29T22:44:54.456Z,94927.22
2023-01-29T22:46:56.261Z,94925.09
2023-01-29T22:48:57.900Z,94928.13
2023-01-29T22:51:13.755Z,94921.34
2023-01-29T22:53:15.491Z,94925.66
2023-01-29T22:55:17.545Z,94914.06
2023-01-29T22:57:19.857Z,94919.78
2023-01-29T22:59:21.653Z,94919.88
2023-01-29T23:01:25.630Z,94919.53
2023-01-29T23:03:27.291Z,94916.28
2023-01-29T23:05:28.875Z,94913.25
2023-01-29T23:07:30.480Z,94908.84
2023-01-29T23:09:32.089Z,94913.88
2023-01-29T23:11:33.879Z,94913.34
2023-01-29T23:13:35.409Z,94905.59
2023-01-29T23:15:36.960Z,94901.38
2023-01-29T23:17:39.738Z,94897.72
2023-01-29T23:19:41.300Z,94902.94
2023-01-29T23:21:42.897Z,94910.19
2023-01-29T23:23:45.180Z,94902.84
2023-01-29T23:26:05.432Z,94901.72
2023-01-29T23:28:07.048Z,94902.53
2023-01-29T23:30:09.656Z,94909.06
2023-01-29T23:32:13.231Z,94905.84
2023-01-29T23:34:15.254Z,94903.63
2023-01-29T23:36:17.157Z,94905.34
2023-01-29T23:38:18.738Z,94909.84
2023-01-29T23:40:20.372Z,94909.94
2023-01-29T23:42:21.989Z,94906.00
2023-01-29T23:44:23.750Z,94891.75
2023-01-29T23:46:25.403Z,94905.66
2023-01-29T23:48:27.026Z,94895.63
2023-01-29T23:50:28.614Z,94889.53
2023-01-29T23:52:30.251Z,94893.31
2023-01-29T23:54:31.807Z,94895.09
2023-01-29T23:56:33.365Z,94890.66
2023-01-29T23:58:35.172Z,94897.00
